Time;durP1;ratioP1;P1;durP2;ratioP2;P2;SDS_P1;SDS_P2;PMS_P1;PMS_P2;Temp;Humidity;BMP_temperature;BMP_pressure;BME280_temperature;BME280_humidity;BME280_pressure;Samples;Min_cycle;Max_cycle;Signal;HPM_P1;HPM_P2
2023/11/13 00:01:15;;;;;;;13.20;8.13;;;6.80;99.90;;;;;;5029903;28;20490;-76
2023/11/13 00:03:41;;;;;;;15.13;7.95;;;6.80;99.90;;;;;;5029951;28;20022;-76
2023/11/13 00:06:07;;;;;;;15.73;8.40;;;6.80;99.90;;;;;;5039684;28;20118;-76
2023/11/13 00:08:32;;;;;;;11.27;7.55;;;6.90;99.90;;;;;;4997224;28;20033;-76
2023/11/13 00:10:58;;;;;;;12.77;8.02;;;6.80;99.90;;;;;;5027052;28;20024;-76
2023/11/13 00:13:24;;;;;;;11.32;8.00;;;6.80;99.90;;;;;;5038659;28;20028;-76
2023/11/13 00:15:49;;;;;;;9.15;7.15;;;6.80;99.90;;;;;;5024675;28;20033;-77
2023/11/13 00:18:15;;;;;;;10.93;7.65;;;6.80;99.90;;;;;;5019173;28;20492;-76
2023/11/13 00:20:41;;;;;;;10.23;7.85;;;6.80;99.90;;;;;;5040419;28;20040;-76
2023/11/13 00:23:06;;;;;;;13.70;8.88;;;6.80;99.90;;;;;;5027152;28;20022;-76
2023/11/13 00:25:32;;;;;;;11.90;7.72;;;6.80;99.90;;;;;;5036557;28;20029;-76
2023/11/13 00:27:58;;;;;;;12.65;8.13;;;6.70;99.90;;;;;;5009211;28;20033;-76
2023/11/13 00:30:24;;;;;;;11.15;7.82;;;6.70;99.90;;;;;;5029432;28;20032;-77
2023/11/13 00:32:49;;;;;;;12.80;7.75;;;6.70;99.90;;;;;;5046935;28;20028;-77
2023/11/13 00:35:15;;;;;;;16.38;7.85;;;6.70;99.90;;;;;;5018995;28;20113;-76
2023/11/13 00:37:41;;;;;;;14.10;7.80;;;6.70;99.90;;;;;;5034079;28;20462;-77
2023/11/13 00:40:07;;;;;;;11.63;8.18;;;6.70;99.90;;;;;;5019814;28;20100;-77
2023/11/13 00:42:33;;;;;;;11.68;8.02;;;6.70;99.90;;;;;;5012365;28;20140;-76
2023/11/13 00:44:59;;;;;;;11.90;7.88;;;6.70;99.90;;;;;;5037720;28;20155;-77
2023/11/13 00:47:25;;;;;;;12.63;8.30;;;6.70;99.90;;;;;;5029517;28;20111;-76
2023/11/13 00:49:51;;;;;;;13.48;7.53;;;6.70;99.90;;;;;;5035400;28;20028;-76
2023/11/13 00:52:17;;;;;;;12.63;7.45;;;6.70;99.90;;;;;;5045462;28;20115;-76
2023/11/13 00:54:42;;;;;;;14.68;7.70;;;6.70;99.90;;;;;;5020257;28;20109;-77
2023/11/13 00:57:08;;;;;;;12.57;8.20;;;6.70;99.90;;;;;;5021081;28;20072;-77
2023/11/13 00:59:34;;;;;;;12.02;7.72;;;6.70;99.90;;;;;;5025548;28;20041;-76
2023/11/13 01:02:01;;;;;;;14.15;7.88;;;6.60;99.90;;;;;;5037122;28;20048;-77
2023/11/13 01:04:27;;;;;;;13.30;8.07;;;6.60;99.90;;;;;;5022676;28;20047;-78
2023/11/13 01:06:56;;;;;;;10.10;7.40;;;6.60;99.90;;;;;;5017798;28;20112;-77
2023/11/13 01:09:22;;;;;;;15.00;8.43;;;6.60;99.90;;;;;;5013034;28;20415;-77
2023/11/13 01:11:52;;;;;;;12.15;8.05;;;6.60;99.90;;;;;;5040814;28;20522;-76
2023/11/13 01:14:18;;;;;;;15.10;8.30;;;6.60;99.90;;;;;;5030996;28;20154;-75
2023/11/13 01:16:44;;;;;;;13.43;8.13;;;6.60;99.90;;;;;;5033691;28;20028;-75
2023/11/13 01:19:10;;;;;;;14.80;8.15;;;6.60;99.90;;;;;;5011393;28;20018;-76
2023/11/13 01:21:37;;;;;;;12.18;7.50;;;6.50;99.90;;;;;;5029955;28;20024;-76
2023/11/13 01:24:03;;;;;;;12.43;7.93;;;6.50;99.90;;;;;;5038275;28;20040;-76
2023/11/13 01:26:28;;;;;;;12.38;7.55;;;6.50;99.90;;;;;;5034820;28;20021;-76
2023/11/13 01:28:54;;;;;;;12.63;7.55;;;6.50;99.90;;;;;;5022419;28;20031;-76
2023/11/13 01:31:19;;;;;;;12.00;7.47;;;6.50;99.90;;;;;;5029529;28;20022;-76
2023/11/13 01:33:45;;;;;;;12.45;7.82;;;6.50;99.90;;;;;;5012386;28;20025;-76
2023/11/13 01:36:11;;;;;;;13.25;8.57;;;6.50;99.90;;;;;;5021697;28;20041;-76
2023/11/13 01:38:36;;;;;;;13.23;7.97;;;6.50;99.90;;;;;;5024275;28;20030;-77
2023/11/13 01:41:02;;;;;;;11.80;7.50;;;6.50;99.90;;;;;;5037613;28;20489;-76
2023/11/13 01:43:28;;;;;;;11.55;7.55;;;6.50;99.90;;;;;;5033979;28;20045;-76
2023/11/13 01:45:56;;;;;;;12.88;8.80;;;6.50;99.90;;;;;;5021766;28;20037;-76
2023/11/13 01:48:23;;;;;;;12.65;7.88;;;6.50;99.90;;;;;;5029339;28;20039;-76
2023/11/13 01:50:50;;;;;;;10.98;6.88;;;6.50;99.90;;;;;;5038331;28;20021;-76
2023/11/13 01:53:21;;;;;;;10.57;8.00;;;6.50;99.90;;;;;;5027483;28;20092;-76
2023/11/13 01:55:47;;;;;;;11.30;7.85;;;6.50;99.90;;;;;;5021830;28;20034;-76
2023/11/13 01:58:14;;;;;;;14.68;8.32;;;6.50;99.90;;;;;;5035649;28;20010;-76
2023/11/13 02:00:40;;;;;;;10.73;7.68;;;6.40;99.90;;;;;;5040515;28;20040;-76
2023/11/13 02:03:08;;;;;;;12.30;8.00;;;6.50;99.90;;;;;;5035075;28;20425;-76
2023/11/13 02:05:34;;;;;;;11.00;8.35;;;6.50;99.90;;;;;;5037566;28;20395;-76
2023/11/13 02:07:59;;;;;;;13.00;7.97;;;6.50;99.90;;;;;;5029371;28;20035;-77
2023/11/13 02:10:26;;;;;;;15.27;8.35;;;6.50;99.90;;;;;;5011962;28;20033;-76
2023/11/13 02:12:53;;;;;;;15.45;8.98;;;6.50;99.90;;;;;;5029684;28;20052;-76
2023/11/13 02:15:19;;;;;;;12.65;7.65;;;6.50;99.90;;;;;;5038259;28;20038;-76
2023/11/13 02:18:01;;;;;;;12.55;8.38;;;6.50;99.90;;;;;;5030375;28;20437;-76
2023/11/13 02:20:28;;;;;;;11.95;8.35;;;6.50;99.90;;;;;;5016771;28;20021;-75
2023/11/13 02:22:53;;;;;;;15.80;8.52;;;6.50;99.90;;;;;;5028956;28;20068;-76
2023/11/13 02:25:23;;;;;;;12.13;8.30;;;6.50;99.90;;;;;;5040561;28;20029;-76
2023/11/13 02:27:53;;;;;;;12.60;7.47;;;6.50;99.90;;;;;;5027650;28;20029;-76
2023/11/13 02:30:20;;;;;;;12.40;7.57;;;6.50;99.90;;;;;;5021458;28;20058;-76
2023/11/13 02:32:47;;;;;;;12.45;8.48;;;6.50;99.90;;;;;;5022837;28;20124;-76
2023/11/13 02:35:13;;;;;;;13.98;8.98;;;6.50;99.90;;;;;;5029059;28;20112;-76
2023/11/13 02:37:40;;;;;;;12.15;8.43;;;6.50;99.90;;;;;;5028620;28;20073;-76
2023/11/13 02:40:09;;;;;;;11.15;7.13;;;6.60;99.90;;;;;;5041364;28;20108;-76
2023/11/13 02:42:36;;;;;;;14.30;7.57;;;6.50;99.90;;;;;;5029626;28;20037;-76
2023/11/13 02:45:02;;;;;;;10.57;8.13;;;6.50;99.90;;;;;;5011039;28;20034;-76
2023/11/13 02:47:27;;;;;;;11.90;7.72;;;6.50;99.90;;;;;;5031120;28;20040;-76
2023/11/13 02:49:53;;;;;;;10.45;7.13;;;6.60;99.90;;;;;;5031203;28;20036;-75
2023/11/13 02:52:19;;;;;;;11.25;7.28;;;6.50;99.90;;;;;;5037369;28;20040;-75
2023/11/13 02:54:45;;;;;;;14.60;8.35;;;6.50;99.90;;;;;;5028823;28;20022;-76
2023/11/13 02:57:11;;;;;;;10.52;7.53;;;6.60;99.90;;;;;;5003024;28;20017;-76
2023/11/13 02:59:37;;;;;;;13.95;7.68;;;6.50;99.90;;;;;;5010832;28;20368;-76
2023/11/13 03:02:03;;;;;;;12.55;8.40;;;6.60;99.90;;;;;;5028268;28;20026;-75
2023/11/13 03:04:30;;;;;;;12.27;7.20;;;6.60;99.90;;;;;;5039474;28;20137;-76
2023/11/13 03:06:55;;;;;;;11.60;7.30;;;6.60;99.90;;;;;;5036373;28;20018;-76
2023/11/13 03:09:21;;;;;;;12.45;7.72;;;6.60;99.90;;;;;;5031521;28;20673;-76
2023/11/13 03:11:47;;;;;;;11.80;7.70;;;6.60;99.90;;;;;;5020101;28;20631;-75
2023/11/13 03:14:13;;;;;;;11.77;7.28;;;6.60;99.90;;;;;;5029946;28;20029;-76
2023/11/13 03:16:39;;;;;;;19.70;7.65;;;6.60;99.90;;;;;;5009928;28;20038;-76
2023/11/13 03:19:04;;;;;;;11.27;7.38;;;6.60;99.90;;;;;;5010380;28;20029;-76
2023/11/13 03:21:30;;;;;;;10.52;7.18;;;6.60;99.90;;;;;;5027863;28;20475;-76
2023/11/13 03:23:55;;;;;;;11.10;7.22;;;6.60;99.90;;;;;;5005122;28;20037;-76
2023/11/13 03:26:21;;;;;;;11.40;7.15;;;6.60;99.90;;;;;;5019033;28;20033;-77
2023/11/13 03:28:47;;;;;;;12.52;8.02;;;6.60;99.90;;;;;;5013486;28;20124;-76
2023/11/13 03:31:13;;;;;;;12.27;6.70;;;6.60;99.90;;;;;;5020786;28;20410;-75
2023/11/13 03:33:39;;;;;;;12.63;7.85;;;6.60;99.90;;;;;;5028076;28;20033;-76
2023/11/13 03:36:05;;;;;;;13.43;7.18;;;6.70;99.90;;;;;;5027536;28;20029;-75
2023/11/13 03:38:30;;;;;;;11.68;7.47;;;6.60;99.90;;;;;;5027634;28;20036;-76
2023/11/13 03:40:56;;;;;;;10.65;7.18;;;6.60;99.90;;;;;;5004876;28;20029;-75
2023/11/13 03:43:22;;;;;;;11.38;7.28;;;6.70;99.90;;;;;;5019077;28;20507;-75
2023/11/13 03:45:47;;;;;;;11.18;7.43;;;6.70;99.90;;;;;;5027757;28;20017;-76
2023/11/13 03:48:13;;;;;;;11.45;7.20;;;6.70;99.90;;;;;;5027520;28;20092;-76
2023/11/13 03:50:39;;;;;;;13.90;7.22;;;6.70;99.90;;;;;;5027424;28;20056;-75
2023/11/13 03:53:04;;;;;;;10.00;6.20;;;6.80;99.90;;;;;;5027398;28;20460;-76
2023/11/13 03:55:30;;;;;;;12.18;7.60;;;6.80;99.90;;;;;;5027854;28;20034;-76
2023/11/13 03:57:55;;;;;;;10.55;7.00;;;6.80;99.90;;;;;;5027466;28;20017;-76
2023/11/13 04:00:22;;;;;;;9.70;7.28;;;6.80;99.90;;;;;;5027820;28;20121;-76
2023/11/13 04:02:48;;;;;;;11.27;6.75;;;6.80;99.90;;;;;;5027241;28;20197;-75
2023/11/13 04:05:14;;;;;;;10.88;6.22;;;6.80;99.90;;;;;;5027682;28;20022;-76
2023/11/13 04:07:40;;;;;;;10.70;6.97;;;6.90;99.90;;;;;;5027229;28;20029;-75
2023/11/13 04:10:12;;;;;;;10.55;6.85;;;6.90;99.90;;;;;;5023812;28;20045;-76
2023/11/13 04:12:39;;;;;;;10.23;6.70;;;6.90;99.90;;;;;;5017681;28;20171;-75
2023/11/13 04:15:05;;;;;;;12.02;6.47;;;6.90;99.90;;;;;;5027310;28;20032;-75
2023/11/13 04:17:31;;;;;;;11.02;6.35;;;6.90;99.90;;;;;;5026898;28;20025;-75
2023/11/13 04:19:56;;;;;;;12.20;7.43;;;6.90;99.90;;;;;;5009302;28;20021;-75
2023/11/13 04:22:22;;;;;;;10.77;6.88;;;6.90;99.90;;;;;;5026988;28;20537;-76
2023/11/13 04:24:47;;;;;;;12.00;7.10;;;6.90;99.90;;;;;;5009464;28;20025;-76
2023/11/13 04:27:13;;;;;;;10.45;6.40;;;7.00;99.90;;;;;;5026917;28;20060;-76
2023/11/13 04:29:39;;;;;;;11.25;7.07;;;7.00;99.90;;;;;;5027220;28;20029;-75
2023/11/13 04:32:04;;;;;;;13.85;7.32;;;7.00;99.90;;;;;;5026599;28;20383;-75
2023/11/13 04:34:32;;;;;;;9.10;6.78;;;7.00;99.90;;;;;;5026637;28;20025;-75
2023/11/13 04:36:58;;;;;;;11.25;6.40;;;6.90;99.90;;;;;;5026078;28;20041;-75
2023/11/13 04:39:24;;;;;;;11.15;7.07;;;7.00;99.90;;;;;;5026905;28;20053;-75
2023/11/13 04:41:50;;;;;;;12.52;7.25;;;7.00;99.90;;;;;;5026795;28;20021;-75
2023/11/13 04:44:15;;;;;;;12.95;7.30;;;7.00;99.90;;;;;;5026504;28;20123;-75
2023/11/13 04:46:41;;;;;;;12.65;6.88;;;7.00;99.90;;;;;;5008788;28;20033;-75
2023/11/13 04:49:07;;;;;;;11.63;6.78;;;7.00;99.90;;;;;;5026692;28;20495;-76
2023/11/13 04:51:33;;;;;;;11.63;6.90;;;7.00;99.90;;;;;;5026317;28;20060;-76
2023/11/13 04:53:59;;;;;;;9.95;6.97;;;7.00;99.90;;;;;;5026840;28;20018;-75
2023/11/13 04:56:24;;;;;;;11.52;6.85;;;7.10;99.90;;;;;;5026457;28;20034;-75
2023/11/13 04:58:50;;;;;;;12.70;7.15;;;7.10;99.90;;;;;;5026533;28;20020;-75
2023/11/13 05:01:17;;;;;;;11.77;6.95;;;7.10;99.90;;;;;;5026684;28;20513;-77
2023/11/13 05:03:42;;;;;;;14.13;8.15;;;7.10;99.90;;;;;;5026292;28;20040;-76
2023/11/13 05:06:17;;;;;;;12.82;7.57;;;7.10;99.90;;;;;;5026821;28;20025;-75
2023/11/13 05:08:46;;;;;;;12.63;6.85;;;7.10;99.90;;;;;;5012839;28;20049;-76
2023/11/13 05:11:26;;;;;;;13.10;7.85;;;7.10;99.90;;;;;;5008923;28;20029;-75
2023/11/13 05:13:53;;;;;;;12.05;7.30;;;7.10;99.90;;;;;;4995407;28;20558;-75
2023/11/13 05:16:20;;;;;;;11.82;8.38;;;7.10;99.90;;;;;;5008475;28;20022;-76
2023/11/13 05:18:48;;;;;;;14.95;8.50;;;7.10;99.90;;;;;;5026488;28;20025;-76
2023/11/13 05:21:15;;;;;;;16.10;9.23;;;7.10;99.90;;;;;;5026863;28;20021;-76
2023/11/13 05:23:41;;;;;;;18.13;8.82;;;7.10;99.90;;;;;;5026258;28;20018;-76
2023/11/13 05:26:06;;;;;;;11.05;7.57;;;7.10;99.90;;;;;;5026307;28;20028;-76
2023/11/13 05:28:32;;;;;;;12.52;8.70;;;7.10;99.90;;;;;;5026169;28;20068;-76
2023/11/13 05:30:58;;;;;;;12.55;8.82;;;7.10;99.90;;;;;;5026425;28;20029;-76
2023/11/13 05:33:23;;;;;;;12.48;7.47;;;7.10;99.90;;;;;;5026041;28;20029;-76
2023/11/13 05:35:49;;;;;;;16.10;8.63;;;7.10;99.90;;;;;;5026574;28;20030;-76
2023/11/13 05:38:16;;;;;;;14.27;8.60;;;7.10;99.90;;;;;;5026283;28;20390;-76
2023/11/13 05:40:45;;;;;;;20.48;9.95;;;7.10;99.90;;;;;;5026467;28;20124;-76
2023/11/13 05:43:10;;;;;;;13.38;9.50;;;7.20;99.90;;;;;;5026139;28;20136;-76
2023/11/13 05:45:36;;;;;;;11.65;8.73;;;7.20;99.90;;;;;;5012314;28;20108;-75
2023/11/13 05:48:02;;;;;;;12.55;8.45;;;7.20;99.90;;;;;;5026110;28;20390;-75
2023/11/13 05:50:28;;;;;;;14.65;8.40;;;7.20;99.90;;;;;;5029927;28;20030;-76
2023/11/13 05:52:54;;;;;;;16.58;8.57;;;7.20;99.90;;;;;;5029647;28;20028;-75
2023/11/13 05:55:22;;;;;;;15.23;10.30;;;7.20;99.90;;;;;;5029688;28;20025;-76
2023/11/13 05:57:48;;;;;;;16.50;9.77;;;7.20;99.90;;;;;;5023068;28;20020;-76
2023/11/13 06:00:16;;;;;;;18.40;9.75;;;7.20;99.90;;;;;;5012204;28;20120;-75
2023/11/13 06:02:42;;;;;;;15.45;9.57;;;7.20;99.90;;;;;;5029631;28;20017;-75
2023/11/13 06:05:09;;;;;;;19.02;9.95;;;7.20;99.90;;;;;;5029946;28;20025;-76
2023/11/13 06:07:36;;;;;;;22.35;11.63;;;7.20;99.90;;;;;;5029595;28;20028;-76
2023/11/13 06:10:04;;;;;;;18.52;9.35;;;7.30;99.90;;;;;;5029920;28;20147;-76
2023/11/13 06:12:30;;;;;;;16.98;9.60;;;7.20;99.90;;;;;;5029404;28;20032;-75
2023/11/13 06:14:56;;;;;;;25.55;11.80;;;7.30;99.90;;;;;;5029548;28;20029;-76
2023/11/13 06:17:23;;;;;;;19.58;11.30;;;7.30;99.90;;;;;;5029277;28;20544;-76
2023/11/13 06:19:51;;;;;;;21.23;12.00;;;7.30;99.90;;;;;;5029500;28;20055;-75
2023/11/13 06:22:17;;;;;;;27.30;12.98;;;7.30;99.90;;;;;;5029397;28;20029;-76
2023/11/13 06:24:43;;;;;;;25.70;11.48;;;7.30;99.90;;;;;;5029992;28;20017;-75
2023/11/13 06:27:09;;;;;;;26.55;13.45;;;7.30;99.90;;;;;;5011183;28;20021;-76
2023/11/13 06:29:35;;;;;;;23.92;12.77;;;7.30;99.90;;;;;;5029412;28;20033;-76
2023/11/13 06:32:05;;;;;;;29.58;13.85;;;7.40;99.90;;;;;;5029270;28;20025;-76
2023/11/13 06:34:30;;;;;;;17.77;10.65;;;7.30;99.90;;;;;;5029279;28;20486;-76
2023/11/13 06:36:56;;;;;;;20.35;12.48;;;7.30;99.90;;;;;;5029698;28;20071;-76
2023/11/13 06:39:22;;;;;;;24.48;12.85;;;7.40;99.90;;;;;;5029568;28;20029;-76
2023/11/13 06:41:49;;;;;;;35.88;15.38;;;7.40;99.90;;;;;;5017154;28;20515;-76
2023/11/13 06:44:15;;;;;;;21.17;11.93;;;7.40;99.90;;;;;;5005335;28;20513;-76
2023/11/13 06:46:40;;;;;;;30.15;14.15;;;7.40;99.90;;;;;;5009231;28;20503;-76
2023/11/13 06:49:07;;;;;;;28.63;14.35;;;7.40;99.90;;;;;;5003157;28;20053;-75
2023/11/13 06:51:33;;;;;;;34.75;14.40;;;7.50;99.90;;;;;;4994602;28;20030;-76
2023/11/13 06:54:00;;;;;;;32.97;14.43;;;7.50;99.90;;;;;;5012061;28;20548;-76
2023/11/13 06:56:25;;;;;;;23.52;12.48;;;7.50;99.90;;;;;;5003785;28;20029;-76
2023/11/13 06:58:51;;;;;;;26.40;11.18;;;7.50;99.90;;;;;;5003146;28;20029;-75
2023/11/13 07:01:18;;;;;;;24.77;12.98;;;7.60;99.90;;;;;;5025252;28;20108;-75
2023/11/13 07:03:45;;;;;;;28.23;12.27;;;7.60;99.90;;;;;;5024728;28;20096;-76
2023/11/13 07:06:11;;;;;;;33.20;13.73;;;7.60;99.90;;;;;;5019044;28;20033;-76
2023/11/13 07:08:38;;;;;;;29.42;13.77;;;7.60;99.90;;;;;;5016268;28;20064;-75
2023/11/13 07:11:04;;;;;;;34.78;13.55;;;7.70;99.90;;;;;;4988690;28;20037;-76
2023/11/13 07:13:30;;;;;;;49.95;16.63;;;7.70;99.90;;;;;;4996032;28;20033;-76
2023/11/13 07:15:56;;;;;;;39.47;15.07;;;7.70;99.90;;;;;;4995237;28;20597;-76
2023/11/13 07:18:22;;;;;;;46.22;17.88;;;7.70;99.90;;;;;;5019958;28;20030;-76
2023/11/13 07:20:50;;;;;;;49.03;19.20;;;7.80;99.90;;;;;;5025344;28;20028;-77
2023/11/13 07:23:19;;;;;;;44.10;16.52;;;7.80;99.90;;;;;;5023411;28;20041;-76
2023/11/13 07:25:45;;;;;;;37.35;15.02;;;7.80;99.90;;;;;;4995007;28;20026;-77
2023/11/13 07:28:12;;;;;;;59.05;18.30;;;7.80;99.90;;;;;;5012247;28;20037;-77
2023/11/13 07:30:38;;;;;;;60.35;18.15;;;7.90;99.90;;;;;;4994521;28;20042;-77
2023/11/13 07:33:03;;;;;;;29.63;13.90;;;7.90;99.90;;;;;;4997793;28;20100;-77
2023/11/13 07:35:29;;;;;;;27.35;14.05;;;7.90;99.90;;;;;;5020880;28;20041;-77
2023/11/13 07:37:55;;;;;;;41.97;14.27;;;8.00;99.90;;;;;;5011229;28;20017;-78
2023/11/13 07:40:21;;;;;;;28.85;14.13;;;8.00;99.90;;;;;;5000262;28;20637;-78
2023/11/13 07:42:48;;;;;;;54.00;16.02;;;8.00;99.90;;;;;;5027377;28;20423;-77
2023/11/13 07:45:14;;;;;;;33.85;12.20;;;8.10;99.90;;;;;;5015597;28;20076;-77
2023/11/13 07:47:40;;;;;;;28.33;11.77;;;8.10;99.90;;;;;;5021412;28;20540;-77
2023/11/13 07:50:12;;;;;;;21.40;11.77;;;8.10;99.90;;;;;;4999632;28;20030;-77
2023/11/13 07:52:43;;;;;;;28.17;12.18;;;8.10;99.90;;;;;;4999824;28;20026;-76
2023/11/13 07:55:12;;;;;;;29.55;12.25;;;8.20;99.90;;;;;;5005483;28;20026;-76
2023/11/13 07:57:39;;;;;;;25.70;13.32;;;8.20;99.90;;;;;;4988333;28;20083;-76
2023/11/13 08:00:10;;;;;;;32.67;13.20;;;8.20;99.90;;;;;;4998324;28;20026;-75
2023/11/13 08:02:44;;;;;;;59.80;17.30;;;8.20;99.90;;;;;;5008782;28;20075;-76
2023/11/13 08:05:15;;;;;;;35.85;14.45;;;8.20;99.90;;;;;;4983254;28;20025;-76
2023/11/13 08:07:43;;;;;;;26.17;12.85;;;8.30;99.90;;;;;;5005908;28;20026;-77
2023/11/13 08:10:13;;;;;;;31.60;12.55;;;8.30;99.90;;;;;;5012308;28;20108;-76
2023/11/13 08:12:50;;;;;;;19.83;10.05;;;8.30;99.90;;;;;;5002552;28;20030;-75
2023/11/13 08:15:16;;;;;;;23.02;10.93;;;8.30;99.90;;;;;;5002642;28;20037;-75
2023/11/13 08:17:43;;;;;;;18.42;10.40;;;8.40;99.90;;;;;;5013041;28;20018;-76
2023/11/13 08:20:10;;;;;;;28.40;12.25;;;8.50;99.90;;;;;;5004065;28;20140;-76
2023/11/13 08:22:38;;;;;;;25.77;11.88;;;8.40;99.90;;;;;;4997421;28;20132;-76
2023/11/13 08:25:05;;;;;;;35.65;12.30;;;8.50;99.90;;;;;;5016978;28;20029;-76
2023/11/13 08:27:31;;;;;;;33.42;12.25;;;8.50;99.90;;;;;;5014615;28;20017;-76
2023/11/13 08:29:57;;;;;;;27.05;13.10;;;8.60;99.90;;;;;;4995967;28;20124;-76
2023/11/13 08:32:24;;;;;;;31.25;11.98;;;8.70;99.90;;;;;;5000550;28;20121;-77
2023/11/13 08:34:49;;;;;;;29.75;12.38;;;8.70;99.90;;;;;;5004371;28;20026;-76
2023/11/13 08:37:15;;;;;;;27.55;12.20;;;8.80;99.90;;;;;;5006159;28;20079;-75
2023/11/13 08:39:41;;;;;;;22.90;10.40;;;8.80;99.90;;;;;;5005155;28;20069;-76
2023/11/13 08:42:07;;;;;;;37.70;13.30;;;8.90;99.90;;;;;;5003061;28;20392;-75
2023/11/13 08:44:34;;;;;;;30.48;11.85;;;8.90;99.90;;;;;;5008382;28;20025;-75
2023/11/13 08:47:00;;;;;;;25.77;10.13;;;9.00;99.90;;;;;;5016592;28;20483;-75
2023/11/13 08:49:26;;;;;;;39.85;14.65;;;9.00;99.90;;;;;;5022393;28;20018;-75
2023/11/13 08:51:52;;;;;;;33.85;11.85;;;9.10;99.90;;;;;;5009304;28;20037;-75
2023/11/13 08:54:18;;;;;;;33.88;12.65;;;9.20;99.90;;;;;;5006814;28;20092;-75
2023/11/13 08:56:51;;;;;;;30.05;12.25;;;9.20;99.90;;;;;;4998488;28;20026;-75
2023/11/13 08:59:17;;;;;;;34.13;13.85;;;9.30;99.90;;;;;;4992818;28;20034;-75
2023/11/13 09:01:43;;;;;;;32.78;12.98;;;9.40;99.90;;;;;;5008274;28;20024;-75
2023/11/13 09:04:09;;;;;;;34.80;12.75;;;9.50;99.90;;;;;;4991593;28;20025;-75
2023/11/13 09:06:36;;;;;;;35.90;14.13;;;9.60;99.90;;;;;;4991824;28;20399;-75
2023/11/13 09:09:03;;;;;;;36.03;13.63;;;9.60;99.90;;;;;;5015423;28;20060;-75
2023/11/13 09:11:30;;;;;;;30.20;12.65;;;9.70;99.90;;;;;;5017530;28;20559;-75
2023/11/13 09:13:55;;;;;;;41.67;14.85;;;9.70;99.90;;;;;;4966754;28;20729;-76
2023/11/13 09:16:22;;;;;;;33.45;13.85;;;9.80;99.90;;;;;;4997374;28;20034;-75
2023/11/13 09:18:52;;;;;;;32.65;12.20;;;9.80;99.90;;;;;;5018291;28;20026;-75
2023/11/13 09:21:18;;;;;;;30.67;12.02;;;9.90;99.90;;;;;;4999296;28;20025;-75
2023/11/13 09:23:45;;;;;;;37.92;11.55;;;9.90;99.90;;;;;;5005453;28;20026;-75
2023/11/13 09:26:11;;;;;;;34.95;13.60;;;10.00;99.90;;;;;;5009223;28;20025;-76
2023/11/13 09:28:37;;;;;;;36.65;14.20;;;10.00;99.90;;;;;;4997767;28;20036;-76
2023/11/13 09:31:04;;;;;;;33.72;12.50;;;10.10;99.90;;;;;;5022787;28;20038;-75
2023/11/13 09:33:29;;;;;;;31.48;11.57;;;10.10;99.90;;;;;;4996424;28;20030;-75
2023/11/13 09:35:55;;;;;;;32.47;10.55;;;10.20;99.90;;;;;;5016712;28;20025;-76
2023/11/13 09:38:21;;;;;;;28.50;10.57;;;10.20;99.90;;;;;;5018204;28;20029;-75
2023/11/13 09:40:48;;;;;;;26.70;9.85;;;10.30;99.90;;;;;;5024676;28;20052;-76
2023/11/13 09:43:14;;;;;;;24.40;8.20;;;10.30;99.90;;;;;;5019951;28;20068;-75
2023/11/13 09:45:47;;;;;;;21.85;7.15;;;10.30;99.90;;;;;;5016153;28;20062;-75
2023/11/13 09:48:19;;;;;;;16.45;6.45;;;10.30;99.90;;;;;;5020978;28;20365;-75
2023/11/13 09:50:45;;;;;;;19.42;6.88;;;10.30;99.90;;;;;;5006358;28;20035;-76
2023/11/13 09:53:16;;;;;;;14.50;5.40;;;10.40;99.90;;;;;;5017748;28;20041;-75
2023/11/13 09:55:42;;;;;;;15.10;5.68;;;10.40;99.90;;;;;;5014892;28;20048;-76
2023/11/13 09:58:10;;;;;;;13.57;4.97;;;10.40;99.90;;;;;;5009771;28;20570;-75
2023/11/13 10:00:36;;;;;;;13.45;4.82;;;10.40;99.90;;;;;;5016813;28;20530;-76
2023/11/13 10:03:02;;;;;;;14.43;4.38;;;10.40;99.90;;;;;;5024238;28;20033;-76
2023/11/13 10:05:31;;;;;;;10.88;4.00;;;10.50;99.90;;;;;;5005726;28;20030;-76
2023/11/13 10:07:57;;;;;;;14.90;5.25;;;10.50;99.90;;;;;;5005063;28;20103;-75
2023/11/13 10:10:33;;;;;;;15.60;4.75;;;10.50;99.90;;;;;;5015307;28;20305;-76
2023/11/13 10:13:01;;;;;;;16.20;4.90;;;10.50;99.90;;;;;;5016362;28;20455;-76
2023/11/13 10:15:36;;;;;;;11.57;4.40;;;10.50;99.90;;;;;;5023043;28;20390;-76
2023/11/13 10:18:04;;;;;;;13.88;4.43;;;10.50;99.90;;;;;;4979403;28;20105;-76
2023/11/13 10:20:29;;;;;;;16.60;5.10;;;10.50;99.90;;;;;;5013214;28;20018;-75
2023/11/13 10:23:04;;;;;;;12.18;4.15;;;10.50;99.90;;;;;;5000530;28;20022;-75
2023/11/13 10:25:46;;;;;;;14.15;4.60;;;10.50;99.90;;;;;;5023062;28;20149;-76
2023/11/13 10:28:19;;;;;;;9.30;4.00;;;10.50;99.90;;;;;;4979452;28;20757;-76
2023/11/13 10:30:50;;;;;;;13.07;3.47;;;10.50;99.90;;;;;;5014068;28;20026;-76
2023/11/13 10:33:16;;;;;;;11.23;4.30;;;10.60;99.90;;;;;;5016701;28;20806;-76
2023/11/13 10:35:45;;;;;;;14.38;4.10;;;10.60;99.90;;;;;;5001585;28;20033;-76
2023/11/13 10:38:14;;;;;;;13.40;3.22;;;10.60;99.90;;;;;;4993772;28;20021;-76
2023/11/13 10:40:43;;;;;;;9.55;2.60;;;10.60;99.90;;;;;;5002769;28;20013;-76
2023/11/13 10:43:10;;;;;;;9.35;2.97;;;10.60;99.90;;;;;;5017548;28;20045;-76
2023/11/13 10:45:45;;;;;;;8.65;3.28;;;10.50;99.90;;;;;;5021608;28;20644;-77
2023/11/13 10:48:11;;;;;;;7.40;2.58;;;10.50;99.90;;;;;;5026974;28;20033;-76
2023/11/13 10:50:36;;;;;;;14.80;3.40;;;10.50;99.90;;;;;;5023553;28;20087;-76
2023/11/13 10:53:04;;;;;;;9.20;2.80;;;10.50;99.90;;;;;;5022777;28;20049;-76
2023/11/13 10:55:30;;;;;;;15.05;3.13;;;10.50;99.90;;;;;;5021634;28;20072;-76
2023/11/13 10:57:56;;;;;;;9.20;3.17;;;10.50;99.90;;;;;;5015413;28;20034;-77
2023/11/13 11:00:22;;;;;;;7.22;2.80;;;10.50;99.90;;;;;;5024753;28;20033;-75
2023/11/13 11:02:53;;;;;;;7.75;2.97;;;10.50;99.90;;;;;;4998317;28;20026;-76
2023/11/13 11:05:23;;;;;;;7.97;3.00;;;10.50;99.90;;;;;;5022418;28;20029;-76
2023/11/13 11:07:54;;;;;;;6.53;2.27;;;10.50;99.90;;;;;;5025955;28;20510;-76
2023/11/13 11:10:24;;;;;;;6.00;2.33;;;10.50;99.90;;;;;;5000316;28;20790;-75
2023/11/13 11:13:09;;;;;;;5.90;2.70;;;10.50;99.90;;;;;;5021919;28;21087;-76
2023/11/13 11:16:05;;;;;;;6.10;2.70;;;10.50;99.90;;;;;;5018172;28;20021;-75
2023/11/13 11:18:37;;;;;;;7.05;3.33;;;10.50;99.90;;;;;;5024878;28;20033;-75
2023/11/13 11:21:33;;;;;;;9.57;2.70;;;10.50;99.90;;;;;;5022689;28;20483;-77
2023/11/13 11:24:20;;;;;;;7.25;3.00;;;10.60;99.90;;;;;;4973506;28;20069;-77
2023/11/13 11:26:59;;;;;;;6.50;3.15;;;10.60;99.90;;;;;;5022661;28;20072;-76
2023/11/13 11:29:36;;;;;;;14.73;2.92;;;10.60;99.90;;;;;;5018106;28;20108;-75
2023/11/13 11:32:14;;;;;;;6.45;2.83;;;10.60;99.90;;;;;;5007374;28;20045;-75
2023/11/13 11:34:42;;;;;;;6.03;3.03;;;10.70;99.90;;;;;;5017307;28;20038;-75
2023/11/13 11:37:13;;;;;;;8.05;3.47;;;10.70;99.90;;;;;;5003820;28;20080;-75
2023/11/13 11:39:46;;;;;;;;;;;10.70;99.90;;;;;;5016254;28;20018;-75
2023/11/13 11:42:23;;;;;;;12.13;3.95;;;10.70;99.90;;;;;;5008024;28;19941;-75
2023/11/13 11:45:02;;;;;;;11.02;4.50;;;10.70;99.90;;;;;;5016712;28;20022;-75
2023/11/13 11:47:28;;;;;;;10.35;4.38;;;10.80;99.90;;;;;;5026679;28;20072;-75
2023/11/13 11:49:56;;;;;;;9.30;5.07;;;10.80;99.90;;;;;;5027233;28;20025;-76
2023/11/13 11:52:51;;;;;;;15.13;6.03;;;10.80;99.90;;;;;;5007080;28;20028;-75
2023/11/13 11:55:19;;;;;;;24.77;7.20;;;10.90;99.90;;;;;;5008718;28;20502;-77
2023/11/13 11:57:46;;;;;;;14.75;6.30;;;11.00;99.90;;;;;;5001148;28;20745;-75
2023/11/13 12:00:19;;;;;;;18.55;7.82;;;11.10;99.90;;;;;;5016636;28;20079;-75
2023/11/13 12:02:45;;;;;;;23.40;7.90;;;11.20;99.90;;;;;;5011763;28;20080;-75
2023/11/13 12:05:12;;;;;;;21.02;8.68;;;11.20;99.90;;;;;;5025104;28;20067;-75
2023/11/13 12:07:38;;;;;;;21.13;9.43;;;11.30;99.90;;;;;;5015769;28;20483;-76
2023/11/13 12:10:09;;;;;;;22.23;9.55;;;11.40;99.90;;;;;;5022758;28;20095;-75
2023/11/13 12:12:36;;;;;;;21.70;9.43;;;11.40;99.90;;;;;;5025349;28;20024;-75
2023/11/13 12:15:06;;;;;;;22.85;9.38;;;11.50;99.90;;;;;;5025569;28;20033;-75
2023/11/13 12:17:37;;;;;;;29.10;10.35;;;11.50;99.90;;;;;;5005237;28;20025;-76
2023/11/13 12:20:06;;;;;;;24.15;9.93;;;11.60;99.90;;;;;;5018921;28;20025;-75
2023/11/13 12:22:34;;;;;;;28.50;9.90;;;11.70;99.90;;;;;;5011858;28;20057;-75
2023/11/13 12:25:03;;;;;;;30.77;9.30;;;11.80;99.90;;;;;;5017797;28;20587;-75
2023/11/13 12:27:30;;;;;;;28.95;11.27;;;11.80;99.90;;;;;;5002007;28;20544;-76
2023/11/13 12:30:16;;;;;;;27.55;10.30;;;11.90;99.90;;;;;;5023389;28;20067;-76
2023/11/13 12:32:44;;;;;;;23.40;10.10;;;12.00;99.90;;;;;;5005354;28;20064;-76
2023/11/13 12:35:11;;;;;;;27.10;10.35;;;12.00;99.90;;;;;;5020266;28;20058;-76
2023/11/13 12:37:37;;;;;;;29.10;9.80;;;12.10;99.90;;;;;;5019094;28;20440;-76
2023/11/13 12:40:06;;;;;;;28.15;8.75;;;12.20;99.90;;;;;;5000721;28;20079;-75
2023/11/13 12:42:32;;;;;;;26.10;9.23;;;12.30;99.90;;;;;;5012315;28;20033;-76
2023/11/13 12:44:59;;;;;;;23.48;9.23;;;12.40;99.90;;;;;;4995608;28;20040;-75